Time;durP1;ratioP1;P1;durP2;ratioP2;P2;SDS_P1;SDS_P2;PMS_P1;PMS_P2;Temp;Humidity;BMP_temperature;BMP_pressure;BME280_temperature;BME280_humidity;BME280_pressure;Samples;Min_cycle;Max_cycle;Signal;HPM_P1;HPM_P2
2021/09/14 00:01:45;;;;;;;13.25;8.15;;;;;;;20.54;92.03;101029.97;6278578;22;20011;-71
2021/09/14 00:04:31;;;;;;;13.20;7.95;;;;;;;20.62;89.42;101020.59;6277691;22;20070;-71
2021/09/14 00:07:16;;;;;;;15.15;8.35;;;;;;;20.76;89.48;101026.06;6278465;22;20007;-71
2021/09/14 00:10:04;;;;;;;12.45;8.25;;;;;;;21.06;86.45;101024.41;6277779;22;20013;-71
2021/09/14 00:12:50;;;;;;;13.25;8.80;;;;;;;20.87;88.28;101029.00;6280036;22;20003;-71
2021/09/14 00:15:36;;;;;;;15.35;8.45;;;;;;;20.78;89.70;101026.81;6278227;22;20003;-71
2021/09/14 00:18:21;;;;;;;13.85;8.27;;;;;;;20.84;89.75;101029.16;6278522;22;20331;-71
2021/09/14 00:21:07;;;;;;;15.23;8.65;;;;;;;20.57;92.85;101029.81;6278592;22;20020;-71
2021/09/14 00:23:53;;;;;;;12.73;8.25;;;;;;;20.58;94.42;101027.03;6278062;22;20008;-71
2021/09/14 00:26:39;;;;;;;17.73;8.13;;;;;;;20.48;96.41;101031.13;6278853;22;20004;-71
2021/09/14 00:29:25;;;;;;;14.30;8.63;;;;;;;20.28;97.21;101028.66;6283126;22;20015;-71
2021/09/14 00:32:11;;;;;;;21.00;9.00;;;;;;;20.32;97.50;101026.69;6276978;22;20003;-71
2021/09/14 00:34:57;;;;;;;15.35;9.18;;;;;;;20.35;97.23;101031.88;6278319;22;20066;-71
2021/09/14 00:37:42;;;;;;;15.90;8.38;;;;;;;20.59;95.77;101038.56;6278457;22;20045;-71
2021/09/14 00:40:28;;;;;;;15.15;8.50;;;;;;;20.76;94.19;101036.72;6278265;22;20054;-71
2021/09/14 00:43:21;;;;;;;15.90;8.10;;;;;;;20.82;92.73;101041.69;6257385;22;20064;-71
2021/09/14 00:46:07;;;;;;;16.35;8.20;;;;;;;20.91;90.11;101035.00;6276472;22;20082;-71
2021/09/14 00:48:53;;;;;;;14.38;8.20;;;;;;;20.88;86.25;101041.38;6255816;22;20019;-71
2021/09/14 00:51:38;;;;;;;14.90;8.13;;;;;;;20.79;87.46;101036.56;6278527;22;20014;-71
2021/09/14 00:54:27;;;;;;;14.40;8.23;;;;;;;20.69;86.29;101034.47;6280136;22;20409;-71
2021/09/14 00:57:13;;;;;;;12.18;8.55;;;;;;;20.03;89.92;101038.81;6255606;22;20014;-70
2021/09/14 00:59:58;;;;;;;20.13;7.88;;;;;;;20.12;82.77;101037.50;6278818;22;20019;-71
2021/09/14 01:02:44;;;;;;;17.45;8.38;;;;;;;20.10;82.93;101037.63;6278060;22;20530;-71
2021/09/14 01:05:30;;;;;;;15.15;8.57;;;;;;;20.32;83.69;101050.66;6277618;22;20015;-71
2021/09/14 01:08:17;;;;;;;17.95;8.50;;;;;;;20.63;87.57;101058.75;6256883;22;20019;-70
2021/09/14 01:11:04;;;;;;;14.07;9.15;;;;;;;20.74;92.70;101062.56;6255631;22;19999;-71
2021/09/14 01:14:00;;;;;;;16.05;9.10;;;;;;;20.50;93.83;101057.69;6278809;22;20366;-71
2021/09/14 01:16:45;;;;;;;14.70;9.45;;;;;;;20.39;100.00;101060.03;6278567;22;20000;-71
2021/09/14 01:19:31;;;;;;;20.08;9.57;;;;;;;20.73;99.82;101058.16;6278440;22;20078;-71
2021/09/14 01:22:17;;;;;;;16.23;9.73;;;;;;;20.33;100.00;101055.06;6277683;22;20011;-71
2021/09/14 01:25:15;;;;;;;15.20;9.75;;;;;;;20.37;100.00;101054.78;6278310;22;20004;-70
2021/09/14 01:28:05;;;;;;;28.17;12.00;;;;;;;20.28;100.00;101059.72;6277844;22;20475;-70
2021/09/14 01:30:51;;;;;;;23.10;11.80;;;;;;;20.15;100.00;101059.53;6225041;23;20035;-71
2021/09/14 01:33:37;;;;;;;26.00;11.50;;;;;;;20.57;99.98;101061.75;6247935;22;20004;-71
2021/09/14 06:15:47;;;;;;;26.13;14.70;;;;;;;21.91;90.04;101220.50;6317449;22;20037;-71
2021/09/14 06:18:33;;;;;;;27.90;14.13;;;;;;;22.51;85.88;101219.69;6337768;22;20049;-72
2021/09/14 06:21:19;;;;;;;23.30;14.05;;;;;;;22.19;84.81;101226.84;6339325;22;20034;-72
2021/09/14 06:24:06;;;;;;;22.83;13.23;;;;;;;22.46;82.63;101222.63;6339274;22;20282;-72
2021/09/14 06:26:51;;;;;;;23.42;13.52;;;;;;;22.37;79.87;101224.91;6317534;22;20053;-72
2021/09/14 06:29:38;;;;;;;24.45;13.10;;;;;;;22.47;81.59;101223.47;6336367;22;20007;-72
2021/09/14 06:32:25;;;;;;;23.33;12.80;;;;;;;22.69;81.18;101226.59;6339312;22;20278;-72
2021/09/14 10:59:51;;;;;;;9.70;7.55;;;;;;;30.84;40.25;101162.16;6283185;22;20027;-72
2021/09/14 11:02:38;;;;;;;10.75;8.05;;;;;;;30.81;40.66;101152.50;6285978;22;20023;-72
2021/09/14 11:05:32;;;;;;;11.52;7.40;;;;;;;30.83;40.18;101155.06;6305450;22;20011;-72
2021/09/14 11:08:23;;;;;;;12.55;7.80;;;;;;;30.73;40.58;101156.91;6284743;22;20007;-72
2021/09/14 11:11:09;;;;;;;12.43;7.35;;;;;;;30.44;40.24;101150.66;6306237;22;20014;-72
2021/09/14 11:13:55;;;;;;;13.80;7.68;;;;;;;30.38;41.19;101149.38;6309114;22;20013;-72
2021/09/14 11:16:48;;;;;;;12.07;7.95;;;;;;;30.32;41.40;101149.09;6306922;22;20086;-72
2021/09/14 15:48:45;;;;;;;16.48;9.02;;;;;;;29.54;40.91;101042.84;6263614;22;20019;-71
2021/09/14 15:51:31;;;;;;;15.75;9.13;;;;;;;29.43;41.00;101046.53;6279315;22;20015;-72
2021/09/14 15:54:18;;;;;;;18.35;9.70;;;;;;;29.47;41.46;101053.38;6277525;22;19999;-71
2021/09/14 15:57:03;;;;;;;15.25;9.10;;;;;;;29.35;41.91;101057.16;6279003;22;20086;-71
2021/09/14 15:59:49;;;;;;;18.88;9.45;;;;;;;29.11;42.07;101053.09;6278379;22;20004;-71
2021/09/14 16:02:35;;;;;;;15.70;8.90;;;;;;;29.24;42.00;101053.72;6278664;22;20096;-71
2021/09/14 16:05:21;;;;;;;17.33;9.45;;;;;;;29.17;42.20;101061.50;6277431;22;20528;-71
2021/09/14 16:08:06;;;;;;;14.73;9.40;;;;;;;29.18;42.92;101059.66;6279297;22;20384;-71
2021/09/14 23:06:13;;;;;;;18.05;11.15;;;;;;;22.34;100.00;101203.75;6300389;22;20023;-71
2021/09/14 23:08:59;;;;;;;18.83;11.43;;;;;;;22.18;100.00;101195.75;6306694;22;20015;-71
2021/09/14 23:11:45;;;;;;;20.55;11.85;;;;;;;22.29;100.00;101197.81;6307793;22;20064;-70
2021/09/14 23:14:31;;;;;;;14.20;10.60;;;;;;;22.75;100.00;101208.38;6306857;22;20014;-70
2021/09/14 23:17:16;;;;;;;15.48;11.00;;;;;;;22.38;100.00;101200.81;6307710;22;20007;-70
2021/09/14 23:20:03;;;;;;;16.10;10.60;;;;;;;22.70;100.00;101205.13;6308892;22;20038;-71
2021/09/14 23:22:49;;;;;;;16.58;10.73;;;;;;;22.83;100.00;101192.75;6285480;22;20306;-71
